Wichita, KS (67201)

10:47 AM CST on January 23, 2017 (GMT -0600)
KMUW - Old Town | | Change Station

Elev 1322 ft 37.69 °N, 97.33 °W | Updated 14 seconds ago

Clear
Clear
42.1 °F
Feels Like 40 °F
N
3.4
Wind Variable Wind from SSW
Gusts 4.9 mph

Today
High -- | Low -- °F
--% Chance of Precip.
Yesterday
High -- | Low -- °F
Precip. -- in
Pressure 29.95 in
Visibility 10.0 miles
Clouds Scattered Clouds 15000 ft
Windchill 40 °F
Dew Point 5 °F
Humidity 21%
Rainfall 0.00 in
Snow Depth Not available.
7:39 AM 5:43 PM
Waning Crescent, 17% visible
METAR KICT 231553Z 20006KT 10SM SCT150 04/01 A2992 RMK AO2 SLP140 T00390006
Pressure 29.95 in
Visibility 10.0 miles
Clouds Scattered Clouds 15000 ft
Windchill 40 °F
Dew Point 5 °F
Humidity 21%
Rainfall 0.00 in
Snow Depth Not available.
7:39 AM 5:43 PM
Waning Crescent, 17% visible
METAR KICT 231553Z 20006KT 10SM SCT150 04/01 A2992 RMK AO2 SLP140 T00390006

Get Your Daily Forecast Email!

Thanks for signing up!

Be on the lookout for a verification email in your inbox.

You'll start receiving the daily forecast at 8 AM.

×

10-Day Weather Forecast

Almanac

Astronomy

Jan. 23, 2017 Rise Set
Actual Time
Civil Twilight
Nautical Twilight
Astronomical Twilight
Moon
Length of Visible Light
Length of Day
Tomorrow will be .
, % of the Moon is Illuminated

Today's Extremes

State Highs State Lows

Community

WunderPhotos

Upload Photos

1,962,540 photos uploaded!

WunderBlog® & News

Nearby

Air Quality

  Air Quality AQ Index Pollutant
Not available.

Snow Depth

Station Depth Elevation

Earthquake Activity

City Distance Mag. Time & Date
Minimum magnitude displayed is 2.5.

Coastal Water Temperatures

Place Temperature

Stations

Nearby Weather Stations

Station Location Temp. Windchill Dew Point Humidity Wind Precip. Elev Updated Type
                   

Watches & Warnings

There are currently no watches in effect.